createdAt,value
2018-09-17T00:01:06.585Z,100898.34
2018-09-17T00:03:37.429Z,100905.38
2018-09-17T00:06:09.109Z,100903.74
2018-09-17T00:08:39.929Z,100907.13
2018-09-17T00:11:10.656Z,100905.90
2018-09-17T00:13:41.483Z,100899.48
2018-09-17T00:16:13.059Z,100897.70
2018-09-17T00:18:43.609Z,100898.69
2018-09-17T00:21:14.397Z,100897.87
2018-09-17T00:23:45.849Z,100893.63
2018-09-17T00:26:21.144Z,100892.98
2018-09-17T00:28:51.561Z,100894.14
2018-09-17T00:31:21.366Z,100897.31
2018-09-17T00:33:51.437Z,100895.13
2018-09-17T00:36:21.296Z,100900.80
2018-09-17T00:38:51.809Z,100895.67
2018-09-17T00:41:22.670Z,100893.83
2018-09-17T00:43:53.377Z,100896.84
2018-09-17T00:46:26.177Z,100897.00
2018-09-17T00:48:55.940Z,100894.51
2018-09-17T00:51:26.873Z,100899.84
2018-09-17T00:53:57.599Z,100899.67
2018-09-17T00:56:28.561Z,100894.48
2018-09-17T00:58:59.808Z,100890.80
2018-09-17T01:01:31.038Z,100887.79
2018-09-17T01:04:01.742Z,100889.73
2018-09-17T01:06:32.592Z,100894.70
2018-09-17T01:09:03.746Z,100892.72
2018-09-17T01:11:34.644Z,100888.72
2018-09-17T01:14:05.378Z,100884.69
2018-09-17T01:16:36.709Z,100892.00
2018-09-17T01:19:07.590Z,100892.34
2018-09-17T01:21:38.346Z,100896.00
2018-09-17T01:24:10.092Z,100897.33
2018-09-17T01:26:40.728Z,100899.31
2018-09-17T01:29:11.918Z,100902.31
2018-09-17T01:31:43.569Z,100907.30
2018-09-17T01:34:13.476Z,100903.09
2018-09-17T01:36:44.781Z,100904.56
2018-09-17T01:39:16.836Z,100902.89
2018-09-17T01:41:46.635Z,100896.88
2018-09-17T01:44:17.644Z,100901.87
2018-09-17T01:46:48.653Z,100896.84
2018-09-17T01:49:19.831Z,100896.13
2018-09-17T01:51:50.885Z,100900.77
2018-09-17T01:54:21.732Z,100893.73
2018-09-17T01:56:52.571Z,100898.37
2018-09-17T01:59:23.596Z,100889.70
2018-09-17T02:01:54.537Z,100886.64
2018-09-17T02:04:25.349Z,100886.81
2018-09-17T02:06:56.856Z,100892.52
2018-09-17T02:09:27.609Z,100898.78
2018-09-17T02:11:58.912Z,100890.42
2018-09-17T02:14:29.626Z,100892.13
2018-09-17T02:17:00.897Z,100888.14
2018-09-17T02:19:31.706Z,100892.95
2018-09-17T02:22:02.585Z,100894.63
2018-09-17T02:24:34.032Z,100893.46
2018-09-17T02:27:04.795Z,100891.79
2018-09-17T02:29:35.612Z,100888.44
2018-09-17T02:32:06.169Z,100887.93
2018-09-17T02:34:36.674Z,100882.44
2018-09-17T02:37:07.522Z,100882.23
2018-09-17T02:39:38.460Z,100890.20
2018-09-17T02:42:10.516Z,100884.37
2018-09-17T02:44:40.353Z,100881.20
2018-09-17T02:47:11.835Z,100874.75
2018-09-17T02:49:42.548Z,100870.45
2018-09-17T02:52:13.812Z,100870.92
2018-09-17T02:54:44.684Z,100875.64
2018-09-17T02:57:15.977Z,100874.71
2018-09-17T02:59:46.734Z,100873.08
2018-09-17T03:02:17.601Z,100876.42
2018-09-17T03:04:48.878Z,100881.41
2018-09-17T03:07:19.715Z,100884.63
2018-09-17T03:09:50.490Z,100885.44
2018-09-17T03:12:21.890Z,100876.30
2018-09-17T03:14:52.750Z,100875.95
2018-09-17T03:17:24.562Z,100883.59
2018-09-17T03:19:54.379Z,100888.56
2018-09-17T03:22:25.833Z,100890.03
2018-09-17T03:24:56.581Z,100886.67
2018-09-17T03:27:27.496Z,100895.80
2018-09-17T03:29:59.017Z,100890.62
2018-09-17T03:32:29.703Z,100892.94
2018-09-17T03:35:00.448Z,100883.79
2018-09-17T03:37:31.753Z,100880.92
2018-09-17T03:40:02.577Z,100880.23
2018-09-17T03:42:33.474Z,100882.20
2018-09-17T03:45:04.957Z,100882.02
2018-09-17T03:47:35.825Z,100882.31
2018-09-17T03:50:06.733Z,100887.28
2018-09-17T03:52:37.481Z,100889.38
2018-09-17T03:55:08.774Z,100884.87
2018-09-17T03:57:39.544Z,100880.66
2018-09-17T04:00:10.445Z,100883.96
2018-09-17T04:02:41.761Z,100888.41
2018-09-17T04:05:12.510Z,100889.86
2018-09-17T04:07:43.798Z,100882.19
2018-09-17T04:10:14.519Z,100889.47
2018-09-17T04:12:45.772Z,100886.28
2018-09-17T04:15:16.521Z,100886.41
2018-09-17T04:17:47.701Z,100896.31
2018-09-17T04:20:18.489Z,100889.48
2018-09-17T04:22:49.912Z,100891.45
2018-09-17T04:25:21.217Z,100891.58
2018-09-17T04:27:52.252Z,100891.73
2018-09-17T04:30:22.889Z,100884.53
2018-09-17T04:32:54.407Z,100893.14
2018-09-17T04:35:25.034Z,100890.13
2018-09-17T04:37:55.628Z,100893.42
2018-09-17T04:40:26.539Z,100882.11
2018-09-17T04:42:57.796Z,100891.53
2018-09-17T04:45:28.566Z,100891.69
2018-09-17T04:47:59.549Z,100884.36
2018-09-17T04:50:30.789Z,100878.64
2018-09-17T04:53:01.789Z,100881.01
2018-09-17T04:55:32.900Z,100881.83
2018-09-17T04:58:03.738Z,100878.82
2018-09-17T05:00:34.637Z,100883.84
2018-09-17T05:03:05.444Z,100887.48
2018-09-17T05:05:36.809Z,100887.20
2018-09-17T05:08:07.630Z,100886.56
2018-09-17T05:10:38.464Z,100883.91
2018-09-17T05:13:09.810Z,100884.00
2018-09-17T05:15:40.705Z,100887.06
2018-09-17T05:18:11.525Z,100891.58
2018-09-17T05:20:42.942Z,100896.47
2018-09-17T05:23:13.705Z,100891.37
2018-09-17T05:25:44.688Z,100887.73
2018-09-17T05:28:15.508Z,100898.34
2018-09-17T05:30:46.920Z,100898.59
2018-09-17T05:33:17.737Z,100890.61
2018-09-17T05:35:48.652Z,100893.77
2018-09-17T05:38:19.441Z,100893.32
2018-09-17T05:40:51.060Z,100889.55
2018-09-17T05:43:21.749Z,100891.11
2018-09-17T05:45:52.765Z,100883.19
2018-09-17T05:48:23.661Z,100884.91
2018-09-17T05:50:54.777Z,100884.82
2018-09-17T05:53:25.577Z,100887.66
2018-09-17T05:55:56.636Z,100888.40
2018-09-17T05:58:27.459Z,100894.80
2018-09-17T06:00:58.817Z,100896.38
2018-09-17T06:03:29.600Z,100894.66
2018-09-17T06:06:00.498Z,100895.23
2018-09-17T06:08:31.487Z,100895.17
2018-09-17T06:11:02.612Z,100898.56
2018-09-17T06:13:33.554Z,100893.41
2018-09-17T06:16:04.961Z,100892.13
2018-09-17T06:18:35.715Z,100901.17
2018-09-17T06:21:07.107Z,100903.91
2018-09-17T06:23:37.685Z,100907.84
2018-09-17T06:26:08.931Z,100910.06
2018-09-17T06:28:39.867Z,100903.03
2018-09-17T06:31:11.882Z,100909.95
2018-09-17T06:33:41.863Z,100908.37
2018-09-17T06:36:13.029Z,100912.54
2018-09-17T06:38:44.211Z,100905.77
2018-09-17T06:41:14.313Z,100902.64
2018-09-17T06:43:44.736Z,100894.33
2018-09-17T06:46:15.592Z,100899.42
2018-09-17T06:48:46.641Z,100890.81
2018-09-17T06:51:17.491Z,100894.03
2018-09-17T06:53:48.509Z,100888.22
2018-09-17T06:56:19.458Z,100887.92
2018-09-17T06:58:50.909Z,100893.50
2018-09-17T07:01:21.705Z,100897.38
2018-09-17T07:03:52.761Z,100892.07
2018-09-17T07:06:23.512Z,100897.09
2018-09-17T07:08:54.804Z,100900.61
2018-09-17T07:11:25.579Z,100899.95
2018-09-17T07:13:56.504Z,100906.84
2018-09-17T07:16:27.761Z,100904.87
2018-09-17T07:18:58.771Z,100901.37
2018-09-17T07:21:29.510Z,100902.72
2018-09-17T07:24:00.904Z,100901.75
2018-09-17T07:26:32.428Z,100893.22
2018-09-17T07:29:02.774Z,100896.92
2018-09-17T07:31:33.357Z,100896.58
2018-09-17T07:34:04.718Z,100895.55
2018-09-17T07:36:34.510Z,100889.17
2018-09-17T07:39:07.889Z,100897.67
2018-09-17T07:41:37.877Z,100900.27
2018-09-17T07:44:07.716Z,100905.15
2018-09-17T07:46:38.548Z,100907.09
2018-09-17T07:49:09.369Z,100910.33
2018-09-17T07:51:40.802Z,100911.39
2018-09-17T07:54:11.566Z,100912.00
2018-09-17T07:56:42.620Z,100907.42
2018-09-17T07:59:13.457Z,100899.33
2018-09-17T08:01:44.863Z,100898.45
2018-09-17T08:04:15.645Z,100899.37
2018-09-17T08:06:46.475Z,100891.64
2018-09-17T08:09:17.665Z,100899.33
2018-09-17T08:11:48.746Z,100889.69
2018-09-17T08:14:19.563Z,100886.27
2018-09-17T08:16:50.518Z,100878.81
2018-09-17T08:19:21.369Z,100876.09
2018-09-17T08:21:53.033Z,100883.34
2018-09-17T08:24:23.600Z,100883.31
2018-09-17T08:26:54.453Z,100873.22
2018-09-17T08:29:25.661Z,100870.05
2018-09-17T08:31:56.185Z,100869.44
2018-09-17T08:34:26.635Z,100866.33
2018-09-17T08:36:57.491Z,100862.51
2018-09-17T08:39:28.664Z,100859.63
2018-09-17T08:41:59.555Z,100856.72
2018-09-17T08:44:30.473Z,100849.92
2018-09-17T08:47:01.806Z,100846.03
2018-09-17T08:49:32.525Z,100844.42
2018-09-17T08:52:03.691Z,100839.28
2018-09-17T08:54:38.655Z,100828.83
2018-09-17T08:57:13.403Z,100841.14
2018-09-17T09:00:45.972Z,100835.60
2018-09-17T09:03:20.572Z,100830.05
2018-09-17T09:05:55.527Z,100822.70
2018-09-17T09:08:25.861Z,100819.33
2018-09-17T09:11:00.680Z,100822.64
2018-09-17T09:13:39.630Z,100822.56
2018-09-17T09:16:09.965Z,100826.59
2018-09-17T09:18:39.725Z,100820.56
2018-09-17T09:21:09.704Z,100824.16
2018-09-17T09:23:39.710Z,100812.73
2018-09-17T09:26:09.771Z,100816.98
2018-09-17T09:28:46.377Z,100810.61
2018-09-17T09:31:16.430Z,100798.83
2018-09-17T09:33:46.396Z,100807.66
2018-09-17T09:36:16.139Z,100811.72
2018-09-17T09:38:45.771Z,100810.97
2018-09-17T09:41:15.680Z,100806.25
2018-09-17T09:43:49.215Z,100805.36
2018-09-17T09:46:19.056Z,100798.52
2018-09-17T09:48:48.975Z,100799.53
2018-09-17T09:51:18.774Z,100797.84
2018-09-17T09:53:48.707Z,100799.53
2018-09-17T09:56:18.669Z,100800.17
2018-09-17T09:58:48.886Z,100796.58
2018-09-17T10:01:23.781Z,100798.39
2018-09-17T10:03:58.653Z,100790.63
2018-09-17T10:06:28.649Z,100794.05
2018-09-17T10:09:03.722Z,100793.59
2018-09-17T10:11:38.689Z,100793.07
2018-09-17T10:14:13.642Z,100800.14
2018-09-17T10:16:48.799Z,100797.47
2018-09-17T10:19:21.645Z,100794.08
2018-09-17T10:21:51.651Z,100801.20
2018-09-17T10:24:21.722Z,100804.95
2018-09-17T10:26:51.963Z,100804.55
2018-09-17T10:29:21.633Z,100800.54
2018-09-17T10:31:52.144Z,100804.91
2018-09-17T10:34:21.885Z,100804.58
2018-09-17T10:36:51.702Z,100797.59
2018-09-17T10:39:21.698Z,100802.77
2018-09-17T10:41:51.687Z,100790.41
2018-09-17T10:44:22.103Z,100785.32
2018-09-17T10:46:51.884Z,100787.34
2018-09-17T10:49:21.793Z,100782.31
2018-09-17T10:51:51.995Z,100784.62
2018-09-17T10:54:21.757Z,100790.20
2018-09-17T10:56:51.904Z,100787.08
2018-09-17T10:59:21.709Z,100793.23
2018-09-17T11:01:51.701Z,100796.45
2018-09-17T11:04:21.748Z,100796.98
2018-09-17T11:06:51.830Z,100794.88
2018-09-17T11:09:21.841Z,100785.28
2018-09-17T11:11:51.788Z,100781.84
2018-09-17T11:14:21.912Z,100770.38
2018-09-17T11:16:55.324Z,100769.45
2018-09-17T11:19:36.473Z,100769.92
2018-09-17T11:22:06.560Z,100771.25
2018-09-17T11:24:36.223Z,100770.90
2018-09-17T11:27:18.004Z,100770.61
2018-09-17T11:29:47.956Z,100768.34
2018-09-17T11:32:17.677Z,100767.72
2018-09-17T11:34:48.258Z,100752.78
2018-09-17T11:37:18.231Z,100765.59
2018-09-17T11:39:47.930Z,100764.05
2018-09-17T11:42:17.605Z,100764.23
2018-09-17T11:44:47.769Z,100761.98
2018-09-17T11:47:17.708Z,100758.40
2018-09-17T11:49:47.734Z,100761.27
2018-09-17T11:52:17.610Z,100761.38
2018-09-17T11:54:47.691Z,100766.42
2018-09-17T11:57:17.817Z,100763.48
2018-09-17T11:59:47.699Z,100760.13
2018-09-17T12:02:22.656Z,100760.94
2018-09-17T12:04:59.497Z,100761.93
2018-09-17T12:07:35.108Z,100758.22
2018-09-17T12:10:05.409Z,100754.70
2018-09-17T12:12:35.369Z,100753.33
2018-09-17T12:15:05.490Z,100753.88
2018-09-17T12:17:35.592Z,100750.73
2018-09-17T12:20:06.188Z,100750.81
2018-09-17T12:22:35.905Z,100753.33
2018-09-17T12:25:05.888Z,100748.59
2018-09-17T12:27:35.762Z,100751.92
2018-09-17T12:30:06.018Z,100753.08
2018-09-17T12:32:36.048Z,100743.72
2018-09-17T12:35:05.852Z,100737.19
2018-09-17T12:37:35.720Z,100732.27
2018-09-17T12:40:06.124Z,100729.02
2018-09-17T12:42:35.825Z,100721.87
2018-09-17T12:45:06.095Z,100730.38
2018-09-17T12:47:35.770Z,100728.17
2018-09-17T12:50:06.113Z,100730.91
2018-09-17T12:52:35.853Z,100727.64
2018-09-17T12:55:05.697Z,100729.27
2018-09-17T12:57:35.944Z,100727.34
2018-09-17T13:00:07.007Z,100724.08
2018-09-17T13:02:36.812Z,100722.18
2018-09-17T13:05:07.103Z,100720.27
2018-09-17T13:07:36.992Z,100719.69
2018-09-17T13:10:06.821Z,100706.50
2018-09-17T13:12:36.728Z,100702.94
2018-09-17T13:15:07.700Z,100699.41
2018-09-17T13:17:37.736Z,100695.81
2018-09-17T13:20:08.637Z,100701.03
2018-09-17T13:22:39.719Z,100698.83
2018-09-17T13:25:09.774Z,100696.90
2018-09-17T13:27:39.756Z,100690.35
2018-09-17T13:30:09.856Z,100675.57
2018-09-17T13:32:39.936Z,100682.70
2018-09-17T13:35:09.616Z,100679.70
2018-09-17T13:37:39.611Z,100675.84
2018-09-17T13:40:09.760Z,100670.11
2018-09-17T13:42:39.811Z,100666.27
2018-09-17T13:45:09.988Z,100669.28
2018-09-17T13:47:39.701Z,100670.38
2018-09-17T13:50:09.840Z,100664.08
2018-09-17T13:52:39.752Z,100664.06
2018-09-17T13:55:09.649Z,100668.47
2018-09-17T13:57:39.686Z,100662.12
2018-09-17T14:00:09.763Z,100662.97
2018-09-17T14:02:39.682Z,100660.20
2018-09-17T14:05:10.148Z,100664.06
2018-09-17T14:07:40.296Z,100658.59
2018-09-17T14:10:10.071Z,100651.98
2018-09-17T14:12:40.120Z,100656.66
2018-09-17T14:15:09.898Z,100649.80
2018-09-17T14:17:39.640Z,100646.27
2018-09-17T14:20:10.036Z,100642.44
2018-09-17T14:22:39.827Z,100642.70
2018-09-17T14:25:09.687Z,100640.80
2018-09-17T14:27:39.608Z,100643.52
2018-09-17T14:30:09.852Z,100636.69
2018-09-17T14:32:44.568Z,100636.39
2018-09-17T14:35:14.284Z,100631.20
2018-09-17T14:37:44.192Z,100630.66
2018-09-17T14:40:14.436Z,100628.19
2018-09-17T14:42:44.131Z,100626.50
2018-09-17T14:45:13.974Z,100626.23
2018-09-17T14:47:43.797Z,100629.78
2018-09-17T14:50:14.118Z,100627.59
2018-09-17T14:52:43.957Z,100628.68
2018-09-17T14:55:14.096Z,100629.80
2018-09-17T14:57:44.017Z,100634.47
2018-09-17T15:00:14.027Z,100636.64
2018-09-17T15:02:44.210Z,100633.11
2018-09-17T15:05:14.140Z,100632.53
2018-09-17T15:07:43.906Z,100629.53
2018-09-17T15:10:14.055Z,100632.55
2018-09-17T15:12:44.158Z,100625.97
2018-09-17T15:15:14.037Z,100622.98
2018-09-17T15:17:43.949Z,100622.69
2018-09-17T15:20:13.783Z,100624.61
2018-09-17T15:22:43.789Z,100616.94
2018-09-17T15:25:13.733Z,100610.08
2018-09-17T15:27:43.844Z,100617.49
2018-09-17T15:30:20.650Z,100616.69
2018-09-17T15:32:50.485Z,100611.77
2018-09-17T15:35:20.366Z,100610.39
2018-09-17T15:37:50.721Z,100607.91
2018-09-17T15:40:20.813Z,100603.78
2018-09-17T15:42:50.967Z,100606.53
2018-09-17T15:45:21.081Z,100604.89
2018-09-17T15:47:50.901Z,100596.67
2018-09-17T15:50:22.883Z,100603.79
2018-09-17T15:52:52.844Z,100594.20
2018-09-17T15:55:30.159Z,100602.95
2018-09-17T15:57:59.939Z,100603.98
2018-09-17T16:00:29.824Z,100610.53
2018-09-17T16:03:00.287Z,100608.00
2018-09-17T16:05:30.101Z,100610.95
2018-09-17T16:07:59.952Z,100605.69
2018-09-17T16:10:29.780Z,100608.33
2018-09-17T16:12:59.978Z,100604.96
2018-09-17T16:15:29.779Z,100595.49
2018-09-17T16:17:59.871Z,100608.72
2018-09-17T16:20:29.865Z,100601.50
2018-09-17T16:22:59.754Z,100601.30
2018-09-17T16:25:29.924Z,100607.13
2018-09-17T16:27:59.900Z,100617.05
2018-09-17T16:30:29.778Z,100611.39
2018-09-17T16:32:59.909Z,100609.34
2018-09-17T16:35:29.660Z,100613.33
2018-09-17T16:37:59.738Z,100610.36
2018-09-17T16:40:29.848Z,100607.44
2018-09-17T16:42:59.703Z,100613.27
2018-09-17T16:45:30.013Z,100602.76
2018-09-17T16:47:59.769Z,100598.09
2018-09-17T16:50:30.062Z,100593.44
2018-09-17T16:53:00.343Z,100598.90
2018-09-17T16:55:30.488Z,100601.59
2018-09-17T16:58:00.274Z,100601.20
2018-09-17T17:00:30.056Z,100607.24
2018-09-17T17:03:00.000Z,100614.52
2018-09-17T17:05:29.731Z,100623.37
2018-09-17T17:08:00.090Z,100623.37
2018-09-17T17:10:30.284Z,100621.12
2018-09-17T17:13:00.429Z,100628.98
2018-09-17T17:15:30.229Z,100623.55
2018-09-17T17:18:00.216Z,100630.89
2018-09-17T17:20:30.538Z,100624.58
2018-09-17T17:23:00.345Z,100624.18
2018-09-17T17:25:30.215Z,100622.13
2018-09-17T17:28:00.175Z,100630.70
2018-09-17T17:30:30.257Z,100630.37
2018-09-17T17:33:00.438Z,100636.84
2018-09-17T17:35:30.432Z,100633.48
2018-09-17T17:38:00.485Z,100631.23
2018-09-17T17:40:30.418Z,100628.71
2018-09-17T17:43:01.341Z,100638.97
2018-09-17T17:45:31.924Z,100640.64
2018-09-17T17:48:03.017Z,100637.34
2018-09-17T17:50:33.656Z,100639.58
2018-09-17T17:53:04.576Z,100635.42
2018-09-17T17:55:35.921Z,100632.11
2018-09-17T17:58:06.960Z,100635.86
2018-09-17T18:00:37.801Z,100641.71
2018-09-17T18:03:08.721Z,100644.24
2018-09-17T18:05:39.653Z,100647.63
2018-09-17T18:10:39.694Z,100647.66
2018-09-17T18:13:13.962Z,100644.17
2018-09-17T18:15:43.926Z,100655.36
2018-09-17T18:18:14.834Z,100652.38
2018-09-17T18:20:46.001Z,100648.59
2018-09-17T18:23:17.952Z,100638.36
2018-09-17T18:25:47.801Z,100642.59
2018-09-17T18:28:18.717Z,100647.51
2018-09-17T18:30:58.059Z,100659.23
2018-09-17T18:33:29.033Z,100662.76
2018-09-17T18:35:58.862Z,100657.97
2018-09-17T18:38:28.719Z,100656.47
2018-09-17T18:40:58.561Z,100647.77
2018-09-17T18:43:28.350Z,100655.13
2018-09-17T18:45:59.030Z,100652.16
2018-09-17T18:48:28.879Z,100653.52
2018-09-17T18:50:58.883Z,100646.91
2018-09-17T18:53:28.910Z,100652.61
2018-09-17T18:55:59.658Z,100655.92
2018-09-17T18:58:30.528Z,100662.38
2018-09-17T19:01:01.425Z,100656.05
2018-09-17T19:03:32.850Z,100655.03
2018-09-17T19:06:03.860Z,100647.96
2018-09-17T19:08:34.972Z,100647.74
2018-09-17T19:11:06.052Z,100653.11
2018-09-17T19:13:36.978Z,100654.88
2018-09-17T19:16:08.094Z,100657.14
2018-09-17T19:18:38.782Z,100658.19
2018-09-17T19:21:09.800Z,100651.42
2018-09-17T19:24:12.498Z,100657.32
2018-09-17T19:26:42.903Z,100656.88
2018-09-17T19:29:17.811Z,100652.31
2018-09-17T19:31:48.643Z,100652.50
2018-09-17T19:34:18.732Z,100656.31
2018-09-17T19:36:48.787Z,100648.64
2018-09-17T19:39:23.615Z,100655.30
2018-09-17T19:41:53.909Z,100651.26
2018-09-17T19:44:24.072Z,100651.03
2018-09-17T19:46:54.728Z,100649.88
2018-09-17T19:49:24.973Z,100644.80
2018-09-17T19:51:59.478Z,100645.06
2018-09-17T19:54:29.404Z,100653.44
2018-09-17T19:56:59.724Z,100654.34
2018-09-17T19:59:35.110Z,100655.77
2018-09-17T20:02:05.379Z,100655.53
2018-09-17T20:04:40.227Z,100652.39
2018-09-17T20:07:10.102Z,100651.73
2018-09-17T20:09:40.050Z,100647.31
2018-09-17T20:12:10.086Z,100645.28
2018-09-17T20:14:40.110Z,100644.63
2018-09-17T20:17:10.191Z,100641.47
2018-09-17T20:19:40.083Z,100631.42
2018-09-17T20:22:11.327Z,100636.31
2018-09-17T20:24:42.134Z,100631.94
2018-09-17T20:27:12.152Z,100631.92
2018-09-17T20:29:42.877Z,100634.78
2018-09-17T20:32:13.228Z,100637.61
2018-09-17T20:34:43.429Z,100636.20
2018-09-17T20:37:13.844Z,100636.13
2018-09-17T20:39:45.527Z,100630.58
2018-09-17T20:42:16.060Z,100627.53
2018-09-17T20:44:46.510Z,100631.27
2018-09-17T20:47:16.940Z,100631.96
2018-09-17T20:49:47.289Z,100631.48
2018-09-17T20:52:17.754Z,100630.64
2018-09-17T20:54:48.619Z,100627.56
2018-09-17T20:57:19.833Z,100631.70
2018-09-17T20:59:50.738Z,100624.09
2018-09-17T21:02:21.575Z,100621.72
2018-09-17T21:04:52.875Z,100629.07
2018-09-17T21:07:23.488Z,100629.33
2018-09-17T21:09:53.993Z,100631.83
2018-09-17T21:12:25.054Z,100627.80
2018-09-17T21:14:55.926Z,100628.83
2018-09-17T21:17:27.170Z,100630.49
2018-09-17T21:19:57.837Z,100626.95
2018-09-17T21:22:28.611Z,100627.17
2018-09-17T21:24:59.511Z,100629.53
2018-09-17T21:27:30.226Z,100632.92
2018-09-17T21:30:00.792Z,100632.45
2018-09-17T21:32:32.885Z,100630.16
2018-09-17T21:35:07.490Z,100625.67
2018-09-17T21:37:38.320Z,100624.39
2018-09-17T21:40:09.218Z,100622.58
2018-09-17T21:42:39.461Z,100623.81
2018-09-17T21:45:10.739Z,100627.05
2018-09-17T21:47:41.455Z,100626.63
2018-09-17T21:50:11.399Z,100624.05
2018-09-17T21:52:41.282Z,100623.73
2018-09-17T21:55:11.294Z,100622.77
2018-09-17T21:57:41.337Z,100621.49
2018-09-17T22:00:11.651Z,100615.16
2018-09-17T22:02:44.061Z,100618.87
2018-09-17T22:05:14.148Z,100620.27
2018-09-17T22:07:44.464Z,100614.92
2018-09-17T22:10:14.677Z,100618.51
2018-09-17T22:12:45.772Z,100613.11
2018-09-17T22:15:16.242Z,100623.72
2018-09-17T22:17:46.069Z,100616.86
2018-09-17T22:20:16.025Z,100624.27
2018-09-17T22:22:46.149Z,100620.82
2018-09-17T22:25:16.027Z,100625.53
2018-09-17T22:27:45.802Z,100625.06
2018-09-17T22:30:15.864Z,100620.77
2018-09-17T22:32:45.730Z,100621.67
2018-09-17T22:35:16.031Z,100623.17
2018-09-17T22:37:46.086Z,100622.17
2018-09-17T22:40:15.857Z,100617.72
2018-09-17T22:42:45.896Z,100617.56
2018-09-17T22:45:15.840Z,100614.61
2018-09-17T22:47:45.802Z,100620.34
2018-09-17T22:50:15.978Z,100618.72
2018-09-17T22:52:45.800Z,100620.43
2018-09-17T22:55:15.738Z,100619.13
2018-09-17T22:57:46.280Z,100618.16
2018-09-17T23:00:16.630Z,100618.53
2018-09-17T23:02:46.509Z,100618.08
2018-09-17T23:05:16.334Z,100610.41
2018-09-17T23:07:46.111Z,100617.77
2018-09-17T23:10:16.303Z,100607.09
2018-09-17T23:12:46.370Z,100608.31
2018-09-17T23:15:16.279Z,100610.34
2018-09-17T23:17:46.253Z,100601.83
2018-09-17T23:20:16.580Z,100610.42
2018-09-17T23:22:46.425Z,100611.48
2018-09-17T23:25:16.241Z,100609.16
2018-09-17T23:27:46.108Z,100603.65
2018-09-17T23:30:16.520Z,100604.86
2018-09-17T23:32:46.439Z,100610.58
2018-09-17T23:35:16.809Z,100610.94
2018-09-17T23:37:47.725Z,100612.00
2018-09-17T23:40:19.006Z,100610.82
2018-09-17T23:42:49.890Z,100615.72
2018-09-17T23:45:20.648Z,100616.24
2018-09-17T23:47:51.678Z,100615.75
2018-09-17T23:50:22.528Z,100628.65
2018-09-17T23:52:53.873Z,100617.16
2018-09-17T23:55:24.765Z,100630.54
2018-09-17T23:57:55.572Z,100632.56
